createdAt,value
2023-03-12T00:00:33.090Z,96473.06
2023-03-12T00:03:00.806Z,96476.28
2023-03-12T00:05:28.774Z,96483.66
2023-03-12T00:07:59.817Z,96481.00
2023-03-12T00:10:27.679Z,96488.28
2023-03-12T00:12:55.623Z,96482.06
2023-03-12T00:15:23.510Z,96484.44
2023-03-12T00:17:51.288Z,96474.81
2023-03-12T00:20:19.967Z,96475.59
2023-03-12T00:22:47.690Z,96485.44
2023-03-12T00:25:15.697Z,96494.84
2023-03-12T00:27:43.566Z,96495.56
2023-03-12T00:30:11.994Z,96493.41
2023-03-12T00:32:39.965Z,96479.13
2023-03-12T00:35:08.094Z,96493.66
2023-03-12T00:37:37.253Z,96497.94
2023-03-12T00:40:06.459Z,96499.16
2023-03-12T00:42:34.199Z,96489.72
2023-03-12T00:45:01.913Z,96486.22
2023-03-12T00:47:29.658Z,96486.41
2023-03-12T00:49:57.447Z,96492.84
2023-03-12T00:52:25.176Z,96487.38
2023-03-12T00:54:52.950Z,96488.56
2023-03-12T00:57:20.677Z,96483.41
2023-03-12T00:59:48.924Z,96487.59
2023-03-12T01:02:16.709Z,96487.59
2023-03-12T01:04:44.422Z,96490.09
2023-03-12T01:07:12.089Z,96494.59
2023-03-12T01:09:39.882Z,96498.31
2023-03-12T01:12:07.841Z,96500.28
2023-03-12T01:14:35.579Z,96502.25
2023-03-12T01:17:03.309Z,96513.28
2023-03-12T01:19:31.385Z,96505.81
2023-03-12T01:21:59.200Z,96519.56
2023-03-12T01:24:26.979Z,96514.84
2023-03-12T01:26:54.902Z,96510.16
2023-03-12T01:29:22.671Z,96517.38
2023-03-12T01:31:52.128Z,96518.41
2023-03-12T01:34:20.111Z,96521.34
2023-03-12T01:36:47.908Z,96512.31
2023-03-12T01:39:16.014Z,96516.81
2023-03-12T01:41:43.758Z,96515.84
2023-03-12T01:44:13.989Z,96528.66
2023-03-12T01:46:43.275Z,96532.94
2023-03-12T01:49:19.788Z,96529.94
2023-03-12T01:52:16.646Z,96541.81
2023-03-12T01:54:48.510Z,96534.72
2023-03-12T01:57:19.309Z,96527.97
2023-03-12T01:59:52.324Z,96529.34
2023-03-12T02:02:24.941Z,96538.72
2023-03-12T02:04:56.923Z,96534.16
2023-03-12T02:07:24.724Z,96545.88
2023-03-12T02:09:52.638Z,96545.81
2023-03-12T02:12:20.412Z,96549.53
2023-03-12T02:14:48.148Z,96554.66
2023-03-12T02:17:15.986Z,96563.59
2023-03-12T02:19:52.041Z,96547.75
2023-03-12T02:22:19.835Z,96555.59
2023-03-12T02:25:15.566Z,96558.78
2023-03-12T02:27:43.439Z,96558.00
2023-03-12T02:30:15.964Z,96551.84
2023-03-12T02:32:43.912Z,96559.06
2023-03-12T02:35:12.114Z,96556.84
2023-03-12T02:37:50.961Z,96562.94
2023-03-12T02:40:41.162Z,96562.81
2023-03-12T02:43:09.509Z,96562.56
2023-03-12T02:45:37.387Z,96558.41
2023-03-12T02:48:06.811Z,96557.91
2023-03-12T02:50:34.711Z,96574.81
2023-03-12T02:53:04.354Z,96562.31
2023-03-12T02:55:32.229Z,96566.41
2023-03-12T02:58:00.131Z,96567.00
2023-03-12T03:00:32.195Z,96567.28
2023-03-12T03:03:00.953Z,96588.03
2023-03-12T03:05:28.818Z,96589.50
2023-03-12T03:07:56.552Z,96588.75
2023-03-12T03:10:24.298Z,96593.69
2023-03-12T03:12:52.076Z,96594.03
2023-03-12T03:15:19.745Z,96587.63
2023-03-12T03:17:47.602Z,96594.75
2023-03-12T03:20:15.601Z,96587.25
2023-03-12T03:22:43.536Z,96594.09
2023-03-12T03:25:11.347Z,96608.56
2023-03-12T03:27:39.262Z,96601.47
2023-03-12T03:30:07.926Z,96614.16
2023-03-12T03:32:40.137Z,96627.31
2023-03-12T03:35:10.037Z,96618.72
2023-03-12T03:37:37.852Z,96616.59
2023-03-12T03:40:06.598Z,96622.84
2023-03-12T03:42:34.586Z,96622.66
2023-03-12T03:45:02.533Z,96621.41
2023-03-12T03:47:30.312Z,96640.16
2023-03-12T03:49:58.166Z,96643.50
2023-03-12T03:52:25.939Z,96654.09
2023-03-12T03:54:54.107Z,96644.28
2023-03-12T03:57:21.835Z,96646.03
2023-03-12T03:59:49.656Z,96643.06
2023-03-12T04:02:18.552Z,96656.50
2023-03-12T04:04:46.279Z,96647.22
2023-03-12T04:07:14.025Z,96650.38
2023-03-12T04:09:41.794Z,96652.16
2023-03-12T04:12:09.746Z,96659.16
2023-03-12T04:14:41.473Z,96660.25
2023-03-12T04:17:10.491Z,96673.59
2023-03-12T04:19:38.627Z,96681.97
2023-03-12T04:22:07.040Z,96678.56
2023-03-12T04:24:34.782Z,96684.88
2023-03-12T04:27:02.771Z,96680.72
2023-03-12T04:29:30.869Z,96696.38
2023-03-12T04:31:58.558Z,96692.00
2023-03-12T04:34:26.428Z,96683.78
2023-03-12T04:36:55.663Z,96695.03
2023-03-12T04:39:23.449Z,96711.53
2023-03-12T04:41:53.257Z,96720.31
2023-03-12T04:44:21.030Z,96706.09
2023-03-12T04:46:48.831Z,96718.91
2023-03-12T04:49:20.330Z,96715.00
2023-03-12T04:51:48.200Z,96718.38
2023-03-12T04:54:16.162Z,96729.56
2023-03-12T04:56:44.390Z,96728.09
2023-03-12T04:59:12.181Z,96741.84
2023-03-12T05:01:47.945Z,96739.94
2023-03-12T05:04:20.851Z,96740.13
2023-03-12T05:06:52.521Z,96746.78
2023-03-12T05:09:20.285Z,96761.84
2023-03-12T05:11:48.438Z,96765.31
2023-03-12T05:14:19.351Z,96770.41
2023-03-12T05:16:48.728Z,96771.44
2023-03-12T05:19:16.802Z,96776.66
2023-03-12T05:21:44.644Z,96791.28
2023-03-12T05:24:12.532Z,96784.59
2023-03-12T05:26:40.357Z,96787.53
2023-03-12T05:29:16.528Z,96793.56
2023-03-12T05:31:44.941Z,96804.19
2023-03-12T05:34:13.215Z,96816.28
2023-03-12T05:36:43.505Z,96827.03
2023-03-12T05:39:12.752Z,96822.13
2023-03-12T05:41:41.433Z,96812.06
2023-03-12T05:44:17.272Z,96832.00
2023-03-12T05:46:49.000Z,96845.25
2023-03-12T05:49:16.762Z,96848.19
2023-03-12T05:51:44.759Z,96844.19
2023-03-12T05:54:12.597Z,96852.56
2023-03-12T05:56:40.423Z,96866.22
2023-03-12T05:59:10.605Z,96875.34
2023-03-12T06:01:40.206Z,96888.34
2023-03-12T06:04:08.043Z,96882.91
2023-03-12T06:06:36.387Z,96873.19
2023-03-12T06:09:04.921Z,96880.25
2023-03-12T06:11:34.107Z,96887.97
2023-03-12T06:14:02.364Z,96911.81
2023-03-12T06:16:30.780Z,96917.97
2023-03-12T06:19:00.114Z,96909.03
2023-03-12T06:21:29.796Z,96909.06
2023-03-12T06:23:58.445Z,96909.59
2023-03-12T06:26:40.503Z,96913.69
2023-03-12T06:29:08.233Z,96941.56
2023-03-12T06:31:38.541Z,96949.31
2023-03-12T06:34:06.621Z,96946.75
2023-03-12T06:36:34.366Z,96937.72
2023-03-12T06:39:02.135Z,96938.66
2023-03-12T06:41:30.412Z,96947.47
2023-03-12T06:43:59.167Z,96956.31
2023-03-12T06:46:26.996Z,96958.56
2023-03-12T06:48:54.903Z,96971.56
2023-03-12T06:51:22.617Z,96984.63
2023-03-12T06:53:50.505Z,96968.34
2023-03-12T06:56:18.341Z,96966.09
2023-03-12T06:58:46.080Z,96974.94
2023-03-12T07:01:13.857Z,96978.38
2023-03-12T07:03:41.742Z,96992.97
2023-03-12T07:06:16.647Z,96992.50
2023-03-12T07:08:44.622Z,96987.63
2023-03-12T07:11:12.618Z,96987.88
2023-03-12T07:13:40.691Z,96999.59
2023-03-12T07:16:08.534Z,97006.75
2023-03-12T07:18:36.353Z,97018.56
2023-03-12T07:21:04.366Z,97007.06
2023-03-12T07:23:32.187Z,97004.03
2023-03-12T07:25:59.892Z,97020.88
2023-03-12T07:28:27.742Z,97014.66
2023-03-12T07:31:00.975Z,97016.28
2023-03-12T07:33:29.000Z,97019.25
2023-03-12T07:35:56.825Z,97022.66
2023-03-12T07:38:24.936Z,97029.78
2023-03-12T07:40:53.522Z,97030.97
2023-03-12T07:43:21.974Z,97022.81
2023-03-12T07:45:51.731Z,97035.47
2023-03-12T07:48:20.169Z,97029.94
2023-03-12T07:50:48.641Z,97034.88
2023-03-12T07:53:16.599Z,97037.38
2023-03-12T07:55:46.180Z,97034.66
2023-03-12T07:58:15.779Z,97033.50
2023-03-12T08:00:44.414Z,97033.38
2023-03-12T08:03:13.356Z,97024.59
2023-03-12T08:05:41.651Z,97028.03
2023-03-12T08:08:09.605Z,97020.25
2023-03-12T08:10:37.469Z,97021.97
2023-03-12T08:13:05.330Z,97035.06
2023-03-12T08:15:33.610Z,97025.09
2023-03-12T08:18:01.531Z,97030.66
2023-03-12T08:20:29.350Z,97020.56
2023-03-12T08:22:57.197Z,97031.47
2023-03-12T08:25:25.055Z,97025.34
2023-03-12T08:27:53.067Z,97028.66
2023-03-12T08:30:20.894Z,97031.16
2023-03-12T08:32:48.722Z,97028.22
2023-03-12T08:35:16.631Z,97037.75
2023-03-12T08:37:44.371Z,97030.94
2023-03-12T08:40:13.383Z,97035.03
2023-03-12T08:42:42.279Z,97032.09
2023-03-12T08:45:14.513Z,97036.91
2023-03-12T08:47:43.506Z,97035.66
2023-03-12T08:50:12.171Z,97051.88
2023-03-12T08:52:39.887Z,97049.16
2023-03-12T08:55:08.085Z,97039.50
2023-03-12T08:57:35.822Z,97046.25
2023-03-12T09:00:05.801Z,97052.56
2023-03-12T09:02:33.516Z,97054.59
2023-03-12T09:05:01.261Z,97053.69
2023-03-12T09:07:30.468Z,97048.16
2023-03-12T09:09:58.317Z,97039.00
2023-03-12T09:12:26.031Z,97032.22
2023-03-12T09:15:09.243Z,97032.91
2023-03-12T09:17:37.570Z,97037.41
2023-03-12T09:20:09.430Z,97045.28
2023-03-12T09:22:37.290Z,97043.44
2023-03-12T09:25:05.817Z,97037.53
2023-03-12T09:27:37.856Z,97025.03
2023-03-12T09:30:08.904Z,97043.13
2023-03-12T09:32:36.712Z,97039.69
2023-03-12T09:35:06.107Z,97041.72
2023-03-12T09:37:34.436Z,97038.63
2023-03-12T09:40:02.148Z,97042.88
2023-03-12T09:43:15.046Z,97047.66
2023-03-12T09:45:44.678Z,97044.88
2023-03-12T09:48:21.410Z,97046.88
2023-03-12T09:50:49.901Z,97045.28
2023-03-12T09:53:41.171Z,97047.88
2023-03-12T09:56:13.535Z,97045.94
2023-03-12T09:58:43.646Z,97047.03
2023-03-12T10:01:41.417Z,97041.81
2023-03-12T10:04:58.874Z,97041.66
2023-03-12T10:07:36.145Z,97037.78
2023-03-12T10:10:10.587Z,97032.38
2023-03-12T10:12:47.134Z,97039.91
2023-03-12T10:15:30.972Z,97049.94
2023-03-12T10:18:19.126Z,97054.59
2023-03-12T10:20:52.169Z,97061.88
2023-03-12T10:23:33.643Z,97053.28
2023-03-12T10:26:19.063Z,97047.00
2023-03-12T10:28:51.881Z,97043.41
2023-03-12T10:31:33.216Z,97056.44
2023-03-12T10:34:01.608Z,97047.31
2023-03-12T10:36:36.876Z,97052.94
2023-03-12T10:39:04.920Z,97047.38
2023-03-12T10:41:34.734Z,97056.91
2023-03-12T10:44:06.437Z,97055.25
2023-03-12T10:46:37.351Z,97072.75
2023-03-12T10:49:23.371Z,97066.75
2023-03-12T10:51:55.334Z,97070.63
2023-03-12T10:54:27.546Z,97046.75
2023-03-12T10:56:55.294Z,97050.94
2023-03-12T10:59:29.375Z,97056.56
2023-03-12T11:01:57.389Z,97054.63
2023-03-12T11:04:28.151Z,97060.44
2023-03-12T11:07:27.820Z,97054.34
2023-03-12T11:10:08.010Z,97039.19
2023-03-12T11:12:37.054Z,97038.03
2023-03-12T11:15:22.127Z,97032.28
2023-03-12T11:17:49.891Z,97028.31
2023-03-12T11:20:29.971Z,97028.94
2023-03-12T11:22:57.756Z,97035.31
2023-03-12T11:25:27.252Z,97031.38
2023-03-12T11:27:56.951Z,97033.88
2023-03-12T11:30:29.800Z,97041.16
2023-03-12T11:32:58.150Z,97033.09
2023-03-12T11:35:54.383Z,97023.72
2023-03-12T11:38:31.322Z,97007.81
2023-03-12T11:41:27.125Z,97011.88
2023-03-12T11:44:13.098Z,97004.94
2023-03-12T11:46:52.882Z,97000.53
2023-03-12T11:49:51.561Z,96996.44
2023-03-12T11:52:25.230Z,97000.03
2023-03-12T11:55:16.515Z,96988.88
2023-03-12T11:57:50.707Z,96994.09
2023-03-12T12:00:21.280Z,97003.81
2023-03-12T12:02:58.083Z,97004.38
2023-03-12T12:05:43.780Z,97014.53
2023-03-12T12:08:26.832Z,97007.69
2023-03-12T12:11:19.057Z,97006.78
2023-03-12T12:13:49.766Z,97006.78
2023-03-12T12:16:30.756Z,96993.19
2023-03-12T12:19:18.772Z,96993.63
2023-03-12T12:22:31.477Z,97006.88
2023-03-12T12:25:22.738Z,97000.31
2023-03-12T12:27:56.769Z,96995.47
2023-03-12T12:30:29.713Z,96993.22
2023-03-12T12:33:15.718Z,97002.00
2023-03-12T12:35:43.751Z,97002.88
2023-03-12T12:38:20.441Z,97009.09
2023-03-12T12:40:52.039Z,97009.00
2023-03-12T12:43:19.644Z,97012.06
2023-03-12T12:45:48.084Z,97009.16
2023-03-12T12:48:48.857Z,97016.06
2023-03-12T12:51:16.873Z,97007.75
2023-03-12T12:54:07.503Z,97012.66
2023-03-12T12:57:06.532Z,97020.66
2023-03-12T12:59:43.172Z,97019.69
2023-03-12T13:02:21.593Z,97016.22
2023-03-12T13:04:49.344Z,97023.22
2023-03-12T13:07:37.289Z,97017.09
2023-03-12T13:10:07.266Z,97024.38
2023-03-12T13:12:51.742Z,97027.91
2023-03-12T13:15:31.612Z,97018.53
2023-03-12T13:17:59.253Z,97022.44
2023-03-12T13:20:33.979Z,97039.03
2023-03-12T13:23:23.058Z,97026.28
2023-03-12T13:26:12.029Z,97033.59
2023-03-12T13:29:06.189Z,97033.41
2023-03-12T13:31:40.601Z,97035.25
2023-03-12T13:34:28.449Z,97029.03
2023-03-12T13:37:01.319Z,97032.09
2023-03-12T13:39:35.417Z,97044.16
2023-03-12T13:42:25.236Z,97041.25
2023-03-12T13:44:53.512Z,97043.44
2023-03-12T13:47:29.602Z,97050.66
2023-03-12T13:50:07.114Z,97047.31
2023-03-12T13:52:37.834Z,97053.94
2023-03-12T13:55:14.877Z,97058.13
2023-03-12T13:57:57.112Z,97059.69
2023-03-12T14:00:31.707Z,97061.47
2023-03-12T14:03:20.734Z,97064.78
2023-03-12T14:06:09.878Z,97061.94
2023-03-12T14:08:49.714Z,97062.88
2023-03-12T14:11:59.086Z,97072.38
2023-03-12T14:14:42.329Z,97068.69
2023-03-12T14:17:34.693Z,97068.44
2023-03-12T14:20:19.533Z,97073.03
2023-03-12T14:22:54.944Z,97069.75
2023-03-12T14:25:33.848Z,97062.06
2023-03-12T14:28:02.693Z,97075.16
2023-03-12T14:30:57.534Z,97081.53
2023-03-12T14:33:25.781Z,97079.91
2023-03-12T14:36:00.817Z,97080.94
2023-03-12T14:38:31.027Z,97080.06
2023-03-12T14:41:04.144Z,97076.88
2023-03-12T14:43:35.215Z,97085.69
2023-03-12T14:46:05.075Z,97095.00
2023-03-12T14:48:36.556Z,97092.56
2023-03-12T14:51:05.504Z,97093.03
2023-03-12T14:53:34.630Z,97099.19
2023-03-12T14:56:24.380Z,97091.63
2023-03-12T14:58:52.214Z,97092.75
2023-03-12T15:01:27.436Z,97103.19
2023-03-12T15:04:02.505Z,97105.28
2023-03-12T15:06:32.081Z,97115.69
2023-03-12T15:09:02.642Z,97116.56
2023-03-12T15:11:30.629Z,97119.53
2023-03-12T15:14:08.236Z,97114.78
2023-03-12T15:16:36.122Z,97123.28
2023-03-12T15:19:04.213Z,97132.25
2023-03-12T15:21:34.211Z,97126.06
2023-03-12T15:24:02.096Z,97134.09
2023-03-12T15:26:33.108Z,97141.59
2023-03-12T15:29:15.672Z,97151.09
2023-03-12T15:31:47.889Z,97148.53
2023-03-12T15:34:32.220Z,97148.13
2023-03-12T15:37:19.010Z,97162.06
2023-03-12T15:39:48.595Z,97164.13
2023-03-12T15:42:17.286Z,97165.69
2023-03-12T15:44:45.146Z,97176.91
2023-03-12T15:47:20.509Z,97169.03
2023-03-12T15:50:12.226Z,97182.06
2023-03-12T15:52:39.969Z,97180.06
2023-03-12T15:55:22.877Z,97190.13
2023-03-12T15:57:52.003Z,97193.88
2023-03-12T16:00:40.072Z,97195.44
2023-03-12T16:03:21.130Z,97189.22
2023-03-12T16:05:49.340Z,97203.75
2023-03-12T16:08:29.398Z,97216.97
2023-03-12T16:10:57.188Z,97219.50
2023-03-12T16:13:31.270Z,97228.34
2023-03-12T16:15:59.334Z,97232.81
2023-03-12T16:18:27.088Z,97237.06
2023-03-12T16:20:54.892Z,97241.34
2023-03-12T16:23:22.847Z,97249.91
2023-03-12T16:25:51.923Z,97250.63
2023-03-12T16:28:20.010Z,97259.56
2023-03-12T16:30:47.935Z,97265.09
2023-03-12T16:33:17.625Z,97264.38
2023-03-12T16:35:45.588Z,97266.66
2023-03-12T16:38:13.481Z,97289.97
2023-03-12T16:40:48.288Z,97292.06
2023-03-12T16:43:23.469Z,97292.66
2023-03-12T16:45:51.923Z,97292.59
2023-03-12T16:48:21.289Z,97307.47
2023-03-12T16:50:50.957Z,97312.78
2023-03-12T16:53:18.989Z,97313.72
2023-03-12T16:55:50.247Z,97309.63
2023-03-12T16:58:18.741Z,97319.84
2023-03-12T17:00:46.801Z,97322.94
2023-03-12T17:03:26.543Z,97329.03
2023-03-12T17:05:54.404Z,97338.22
2023-03-12T17:08:22.108Z,97347.06
2023-03-12T17:10:49.887Z,97342.03
2023-03-12T17:13:18.970Z,97345.47
2023-03-12T17:15:46.835Z,97358.69
2023-03-12T17:18:14.707Z,97361.41
2023-03-12T17:20:42.579Z,97355.56
2023-03-12T17:23:10.432Z,97374.59
2023-03-12T17:25:39.974Z,97375.44
2023-03-12T17:28:08.116Z,97364.66
2023-03-12T17:30:36.045Z,97378.59
2023-03-12T17:33:12.013Z,97378.97
2023-03-12T17:35:40.116Z,97392.38
2023-03-12T17:38:08.484Z,97392.41
2023-03-12T17:40:39.894Z,97396.16
2023-03-12T17:43:07.760Z,97392.75
2023-03-12T17:45:37.017Z,97391.97
2023-03-12T17:48:04.854Z,97406.78
2023-03-12T17:50:32.626Z,97413.13
2023-03-12T17:53:00.305Z,97401.03
2023-03-12T17:55:28.125Z,97402.84
2023-03-12T17:57:55.792Z,97411.09
2023-03-12T18:00:23.736Z,97416.09
2023-03-12T18:02:51.545Z,97418.03
2023-03-12T18:05:19.339Z,97418.34
2023-03-12T18:07:47.974Z,97427.91
2023-03-12T18:10:15.814Z,97425.72
2023-03-12T18:12:43.526Z,97420.03
2023-03-12T18:15:13.169Z,97433.84
2023-03-12T18:17:41.443Z,97433.34
2023-03-12T18:20:12.608Z,97438.56
2023-03-12T18:22:40.702Z,97430.31
2023-03-12T18:25:08.565Z,97437.59
2023-03-12T18:27:36.494Z,97447.81
2023-03-12T18:30:04.730Z,97435.38
2023-03-12T18:32:32.519Z,97452.00
2023-03-12T18:35:00.395Z,97443.66
2023-03-12T18:37:28.058Z,97449.16
2023-03-12T18:39:55.838Z,97451.44
2023-03-12T18:42:23.580Z,97445.75
2023-03-12T18:44:51.388Z,97447.00
2023-03-12T18:47:19.211Z,97460.63
2023-03-12T18:49:46.977Z,97461.91
2023-03-12T18:52:14.722Z,97460.63
2023-03-12T18:54:42.516Z,97466.41
2023-03-12T18:57:12.442Z,97475.56
2023-03-12T18:59:45.252Z,97479.25
2023-03-12T19:02:13.071Z,97485.75
2023-03-12T19:04:40.813Z,97477.84
2023-03-12T19:07:08.946Z,97495.31
2023-03-12T19:09:36.880Z,97497.88
2023-03-12T19:12:04.903Z,97494.25
2023-03-12T19:14:32.606Z,97497.97
2023-03-12T19:17:00.347Z,97502.06
2023-03-12T19:19:28.043Z,97503.72
2023-03-12T19:21:57.441Z,97504.03
2023-03-12T19:24:25.194Z,97502.88
2023-03-12T19:26:52.942Z,97501.66
2023-03-12T19:29:20.660Z,97525.97
2023-03-12T19:31:48.643Z,97516.34
2023-03-12T19:34:17.494Z,97520.97
2023-03-12T19:36:45.281Z,97529.56
2023-03-12T19:39:21.178Z,97537.31
2023-03-12T19:41:50.487Z,97543.09
2023-03-12T19:44:18.225Z,97530.84
2023-03-12T19:46:45.960Z,97538.88
2023-03-12T19:49:13.705Z,97542.31
2023-03-12T19:51:41.448Z,97548.56
2023-03-12T19:54:09.130Z,97552.34
2023-03-12T19:56:36.838Z,97563.03
2023-03-12T19:59:04.497Z,97562.47
2023-03-12T20:01:32.255Z,97559.16
2023-03-12T20:03:59.980Z,97557.50
2023-03-12T20:06:27.764Z,97573.97
2023-03-12T20:08:55.499Z,97574.31
2023-03-12T20:11:23.291Z,97571.84
2023-03-12T20:13:50.993Z,97581.34
2023-03-12T20:16:18.922Z,97579.94
2023-03-12T20:18:46.757Z,97586.28
2023-03-12T20:21:14.492Z,97599.41
2023-03-12T20:23:42.251Z,97601.00
2023-03-12T20:26:10.188Z,97604.63
2023-03-12T20:28:37.939Z,97601.81
2023-03-12T20:31:13.174Z,97603.13
2023-03-12T20:33:41.081Z,97611.16
2023-03-12T20:36:12.786Z,97605.53
2023-03-12T20:38:40.997Z,97607.25
2023-03-12T20:41:13.161Z,97607.19
2023-03-12T20:43:44.738Z,97603.72
2023-03-12T20:46:12.725Z,97611.06
2023-03-12T20:48:40.457Z,97599.41
2023-03-12T20:51:08.299Z,97604.88
2023-03-12T20:53:36.074Z,97612.28
2023-03-12T20:56:06.496Z,97614.56
2023-03-12T20:58:34.805Z,97622.38
2023-03-12T21:01:03.496Z,97627.09
2023-03-12T21:03:31.312Z,97620.28
2023-03-12T21:06:00.286Z,97625.34
2023-03-12T21:08:28.260Z,97622.84
2023-03-12T21:10:56.054Z,97628.91
2023-03-12T21:13:23.872Z,97632.94
2023-03-12T21:15:51.681Z,97635.59
2023-03-12T21:18:19.459Z,97636.69
2023-03-12T21:20:47.505Z,97637.66
2023-03-12T21:23:15.226Z,97644.09
2023-03-12T21:25:43.000Z,97634.28
2023-03-12T21:28:10.962Z,97643.00
2023-03-12T21:30:39.028Z,97649.09
2023-03-12T21:33:07.398Z,97655.78
2023-03-12T21:35:35.255Z,97645.78
2023-03-12T21:38:03.006Z,97653.72
2023-03-12T21:40:30.836Z,97653.28
2023-03-12T21:42:58.554Z,97649.50
2023-03-12T21:45:26.547Z,97653.34
2023-03-12T21:47:54.676Z,97650.09
2023-03-12T21:50:22.469Z,97660.66
2023-03-12T21:52:50.926Z,97660.31
2023-03-12T21:55:18.736Z,97661.63
2023-03-12T21:57:46.527Z,97660.31
2023-03-12T22:00:14.416Z,97664.19
2023-03-12T22:02:45.043Z,97658.13
2023-03-12T22:05:12.767Z,97662.25
2023-03-12T22:07:40.587Z,97670.56
2023-03-12T22:10:11.855Z,97669.75
2023-03-12T22:12:39.984Z,97658.47
2023-03-12T22:15:10.049Z,97671.19
2023-03-12T22:17:37.802Z,97673.84
2023-03-12T22:20:07.886Z,97666.22
2023-03-12T22:22:35.738Z,97676.13
2023-03-12T22:25:03.590Z,97668.31
2023-03-12T22:27:31.293Z,97670.88
2023-03-12T22:29:59.051Z,97675.78
2023-03-12T22:32:27.614Z,97675.31
2023-03-12T22:34:55.319Z,97670.78
2023-03-12T22:37:23.124Z,97676.91
2023-03-12T22:39:51.367Z,97682.31
2023-03-12T22:42:19.118Z,97678.81
2023-03-12T22:44:46.848Z,97683.59
2023-03-12T22:47:14.555Z,97675.66
2023-03-12T22:49:42.269Z,97686.75
2023-03-12T22:52:10.098Z,97688.03
2023-03-12T22:54:37.855Z,97685.78
2023-03-12T22:57:05.683Z,97687.38
2023-03-12T22:59:33.470Z,97685.63
2023-03-12T23:02:01.290Z,97683.38
2023-03-12T23:04:29.002Z,97681.13
2023-03-12T23:07:11.287Z,97696.28
2023-03-12T23:09:41.280Z,97692.25
2023-03-12T23:12:08.982Z,97686.31
2023-03-12T23:14:36.732Z,97691.75
2023-03-12T23:17:04.567Z,97705.56
2023-03-12T23:19:33.398Z,97703.09
2023-03-12T23:22:01.136Z,97700.88
2023-03-12T23:24:31.947Z,97701.09
2023-03-12T23:27:00.269Z,97698.34
2023-03-12T23:29:29.732Z,97700.06
2023-03-12T23:31:57.527Z,97716.56
2023-03-12T23:34:25.610Z,97715.41
2023-03-12T23:36:53.545Z,97718.44
2023-03-12T23:39:21.251Z,97727.19
2023-03-12T23:41:48.968Z,97728.78
2023-03-12T23:44:16.629Z,97730.09
2023-03-12T23:46:45.076Z,97728.06
2023-03-12T23:49:12.844Z,97728.88
2023-03-12T23:51:41.011Z,97727.75
2023-03-12T23:54:08.798Z,97733.06
2023-03-12T23:56:38.147Z,97731.81
2023-03-12T23:59:06.478Z,97729.72
